sensor_id;sensor_type;location;lat;lon;timestamp;temperature;humidity
8313;DHT22;4194;43.408;24.626;2023-12-20T00:00:26;1.70;99.90
8313;DHT22;4194;43.408;24.626;2023-12-20T00:02:51;1.70;99.90
8313;DHT22;4194;43.408;24.626;2023-12-20T00:05:17;2.10;99.90
8313;DHT22;4194;43.408;24.626;2023-12-20T00:07:43;1.70;99.90
8313;DHT22;4194;43.408;24.626;2023-12-20T00:10:09;1.70;99.90
8313;DHT22;4194;43.408;24.626;2023-12-20T00:12:34;2.10;99.90
8313;DHT22;4194;43.408;24.626;2023-12-20T00:15:00;2.10;99.90
8313;DHT22;4194;43.408;24.626;2023-12-20T00:17:26;1.30;99.90
8313;DHT22;4194;43.408;24.626;2023-12-20T00:19:51;1.60;99.90
8313;DHT22;4194;43.408;24.626;2023-12-20T00:22:17;1.90;99.90
8313;DHT22;4194;43.408;24.626;2023-12-20T00:24:43;1.70;99.90
8313;DHT22;4194;43.408;24.626;2023-12-20T00:27:08;1.60;99.90
8313;DHT22;4194;43.408;24.626;2023-12-20T00:29:34;1.50;99.90
8313;DHT22;4194;43.408;24.626;2023-12-20T00:31:59;1.60;99.90
8313;DHT22;4194;43.408;24.626;2023-12-20T00:34:25;1.50;99.90
8313;DHT22;4194;43.408;24.626;2023-12-20T00:36:51;2.00;99.90
8313;DHT22;4194;43.408;24.626;2023-12-20T00:39:16;2.10;99.90
8313;DHT22;4194;43.408;24.626;2023-12-20T00:41:42;1.50;99.90
8313;DHT22;4194;43.408;24.626;2023-12-20T00:44:08;1.60;99.90
8313;DHT22;4194;43.408;24.626;2023-12-20T00:46:33;1.00;99.90
8313;DHT22;4194;43.408;24.626;2023-12-20T00:48:59;1.40;99.90
8313;DHT22;4194;43.408;24.626;2023-12-20T00:51:25;2.00;99.90
8313;DHT22;4194;43.408;24.626;2023-12-20T00:53:51;1.50;99.90
8313;DHT22;4194;43.408;24.626;2023-12-20T00:56:20;1.40;99.90
8313;DHT22;4194;43.408;24.626;2023-12-20T00:58:46;0.90;99.90
8313;DHT22;4194;43.408;24.626;2023-12-20T01:01:11;1.10;99.90
8313;DHT22;4194;43.408;24.626;2023-12-20T01:03:38;1.60;99.90
8313;DHT22;4194;43.408;24.626;2023-12-20T01:06:04;2.00;99.90
8313;DHT22;4194;43.408;24.626;2023-12-20T01:08:30;1.30;99.90
8313;DHT22;4194;43.408;24.626;2023-12-20T01:10:56;2.10;99.90
8313;DHT22;4194;43.408;24.626;2023-12-20T01:13:22;1.40;99.90
8313;DHT22;4194;43.408;24.626;2023-12-20T01:15:47;1.40;99.90
8313;DHT22;4194;43.408;24.626;2023-12-20T01:18:14;1.50;99.90
8313;DHT22;4194;43.408;24.626;2023-12-20T01:20:40;2.00;99.90
8313;DHT22;4194;43.408;24.626;2023-12-20T01:23:05;1.10;99.90
8313;DHT22;4194;43.408;24.626;2023-12-20T01:25:31;1.20;99.90
8313;DHT22;4194;43.408;24.626;2023-12-20T01:27:57;1.60;99.90
8313;DHT22;4194;43.408;24.626;2023-12-20T01:30:22;1.20;99.90
8313;DHT22;4194;43.408;24.626;2023-12-20T01:32:48;0.80;99.90
8313;DHT22;4194;43.408;24.626;2023-12-20T01:35:14;1.10;99.90
8313;DHT22;4194;43.408;24.626;2023-12-20T01:37:40;0.90;99.90
8313;DHT22;4194;43.408;24.626;2023-12-20T01:40:06;1.40;99.90
8313;DHT22;4194;43.408;24.626;2023-12-20T01:42:31;1.40;99.90
8313;DHT22;4194;43.408;24.626;2023-12-20T01:44:57;1.10;99.90
8313;DHT22;4194;43.408;24.626;2023-12-20T01:47:23;1.20;99.90
8313;DHT22;4194;43.408;24.626;2023-12-20T01:49:49;1.60;99.90
8313;DHT22;4194;43.408;24.626;2023-12-20T01:52:15;1.00;99.90
8313;DHT22;4194;43.408;24.626;2023-12-20T01:54:42;1.20;99.90
8313;DHT22;4194;43.408;24.626;2023-12-20T01:57:08;1.10;99.90
8313;DHT22;4194;43.408;24.626;2023-12-20T01:59:35;1.10;99.90
8313;DHT22;4194;43.408;24.626;2023-12-20T02:02:03;1.20;99.90
8313;DHT22;4194;43.408;24.626;2023-12-20T02:04:29;1.60;99.90
8313;DHT22;4194;43.408;24.626;2023-12-20T02:06:55;1.40;99.90
8313;DHT22;4194;43.408;24.626;2023-12-20T02:09:22;1.10;99.90
8313;DHT22;4194;43.408;24.626;2023-12-20T02:11:49;1.20;99.90
8313;DHT22;4194;43.408;24.626;2023-12-20T02:14:14;1.20;99.90
8313;DHT22;4194;43.408;24.626;2023-12-20T02:16:40;1.20;99.90
8313;DHT22;4194;43.408;24.626;2023-12-20T02:19:13;1.40;99.90
8313;DHT22;4194;43.408;24.626;2023-12-20T02:21:39;1.60;99.90
8313;DHT22;4194;43.408;24.626;2023-12-20T02:24:05;1.20;99.90
8313;DHT22;4194;43.408;24.626;2023-12-20T02:26:32;0.80;99.90
8313;DHT22;4194;43.408;24.626;2023-12-20T02:28:59;1.80;99.90
8313;DHT22;4194;43.408;24.626;2023-12-20T02:31:24;1.30;99.90
8313;DHT22;4194;43.408;24.626;2023-12-20T02:33:50;1.20;99.90
8313;DHT22;4194;43.408;24.626;2023-12-20T02:36:16;1.10;99.90
8313;DHT22;4194;43.408;24.626;2023-12-20T02:38:41;1.20;99.90
8313;DHT22;4194;43.408;24.626;2023-12-20T02:41:07;1.50;99.90
8313;DHT22;4194;43.408;24.626;2023-12-20T02:43:33;0.70;99.90
8313;DHT22;4194;43.408;24.626;2023-12-20T02:45:59;1.50;99.90
8313;DHT22;4194;43.408;24.626;2023-12-20T02:48:24;0.50;99.90
8313;DHT22;4194;43.408;24.626;2023-12-20T02:50:50;0.80;99.90
8313;DHT22;4194;43.408;24.626;2023-12-20T02:53:16;1.00;99.90
8313;DHT22;4194;43.408;24.626;2023-12-20T02:55:42;1.30;99.90
8313;DHT22;4194;43.408;24.626;2023-12-20T02:58:07;1.20;99.90
8313;DHT22;4194;43.408;24.626;2023-12-20T03:00:33;1.00;99.90
8313;DHT22;4194;43.408;24.626;2023-12-20T03:02:59;0.90;99.90
8313;DHT22;4194;43.408;24.626;2023-12-20T03:05:25;0.70;99.90
8313;DHT22;4194;43.408;24.626;2023-12-20T03:07:51;0.90;99.90
8313;DHT22;4194;43.408;24.626;2023-12-20T03:10:18;1.10;99.90
8313;DHT22;4194;43.408;24.626;2023-12-20T03:12:44;0.90;99.90
8313;DHT22;4194;43.408;24.626;2023-12-20T03:15:10;1.20;99.90
8313;DHT22;4194;43.408;24.626;2023-12-20T03:17:36;1.20;99.90
8313;DHT22;4194;43.408;24.626;2023-12-20T03:20:02;0.80;99.90
8313;DHT22;4194;43.408;24.626;2023-12-20T03:22:28;1.00;99.90
8313;DHT22;4194;43.408;24.626;2023-12-20T03:24:53;0.70;99.90
8313;DHT22;4194;43.408;24.626;2023-12-20T03:27:19;0.80;99.90
8313;DHT22;4194;43.408;24.626;2023-12-20T03:29:45;0.10;99.90
8313;DHT22;4194;43.408;24.626;2023-12-20T03:32:10;1.00;99.90
8313;DHT22;4194;43.408;24.626;2023-12-20T03:34:36;0.80;99.90
8313;DHT22;4194;43.408;24.626;2023-12-20T03:37:02;1.30;99.90
8313;DHT22;4194;43.408;24.626;2023-12-20T03:39:27;0.70;99.90
8313;DHT22;4194;43.408;24.626;2023-12-20T03:41:53;0.10;99.90
8313;DHT22;4194;43.408;24.626;2023-12-20T03:44:19;0.70;99.90
8313;DHT22;4194;43.408;24.626;2023-12-20T03:46:46;0.90;99.90
8313;DHT22;4194;43.408;24.626;2023-12-20T03:49:12;0.70;99.90
8313;DHT22;4194;43.408;24.626;2023-12-20T03:51:37;0.90;99.90
8313;DHT22;4194;43.408;24.626;2023-12-20T03:54:03;0.70;99.90
8313;DHT22;4194;43.408;24.626;2023-12-20T03:56:29;0.70;99.90
8313;DHT22;4194;43.408;24.626;2023-12-20T03:58:54;0.90;99.90
8313;DHT22;4194;43.408;24.626;2023-12-20T04:01:20;1.10;99.90
8313;DHT22;4194;43.408;24.626;2023-12-20T04:03:46;0.70;99.90
8313;DHT22;4194;43.408;24.626;2023-12-20T04:06:17;0.30;99.90
8313;DHT22;4194;43.408;24.626;2023-12-20T04:08:43;0.60;99.90
8313;DHT22;4194;43.408;24.626;2023-12-20T04:11:08;0.00;99.90
8313;DHT22;4194;43.408;24.626;2023-12-20T04:13:34;0.60;99.90
8313;DHT22;4194;43.408;24.626;2023-12-20T04:15:59;1.10;99.90
8313;DHT22;4194;43.408;24.626;2023-12-20T04:18:26;0.90;99.90
8313;DHT22;4194;43.408;24.626;2023-12-20T04:20:51;0.60;99.90
8313;DHT22;4194;43.408;24.626;2023-12-20T04:23:17;0.60;99.90
8313;DHT22;4194;43.408;24.626;2023-12-20T04:25:43;-0.10;99.90
8313;DHT22;4194;43.408;24.626;2023-12-20T04:28:08;-0.10;99.90
8313;DHT22;4194;43.408;24.626;2023-12-20T04:30:34;0.40;99.90
8313;DHT22;4194;43.408;24.626;2023-12-20T04:33:00;0.50;99.90
8313;DHT22;4194;43.408;24.626;2023-12-20T04:35:26;0.10;99.90
8313;DHT22;4194;43.408;24.626;2023-12-20T04:37:51;0.70;99.90
8313;DHT22;4194;43.408;24.626;2023-12-20T04:40:17;0.50;99.90
8313;DHT22;4194;43.408;24.626;2023-12-20T04:42:43;1.10;99.90
8313;DHT22;4194;43.408;24.626;2023-12-20T04:45:09;0.50;99.90
8313;DHT22;4194;43.408;24.626;2023-12-20T04:47:34;0.50;99.90
8313;DHT22;4194;43.408;24.626;2023-12-20T04:50:01;0.60;99.90
8313;DHT22;4194;43.408;24.626;2023-12-20T04:52:27;0.60;99.90
8313;DHT22;4194;43.408;24.626;2023-12-20T04:54:53;1.00;99.90
8313;DHT22;4194;43.408;24.626;2023-12-20T04:57:18;0.60;99.90
8313;DHT22;4194;43.408;24.626;2023-12-20T04:59:44;-0.20;99.90
8313;DHT22;4194;43.408;24.626;2023-12-20T05:02:10;0.40;99.90
8313;DHT22;4194;43.408;24.626;2023-12-20T05:04:36;1.20;99.90
8313;DHT22;4194;43.408;24.626;2023-12-20T05:07:01;-0.20;99.90
8313;DHT22;4194;43.408;24.626;2023-12-20T05:09:27;0.40;99.90
8313;DHT22;4194;43.408;24.626;2023-12-20T05:11:53;0.50;99.90
8313;DHT22;4194;43.408;24.626;2023-12-20T05:14:18;0.50;99.90
8313;DHT22;4194;43.408;24.626;2023-12-20T05:16:44;-0.20;99.90
8313;DHT22;4194;43.408;24.626;2023-12-20T05:19:10;0.80;99.90
8313;DHT22;4194;43.408;24.626;2023-12-20T05:21:35;-0.20;99.90
8313;DHT22;4194;43.408;24.626;2023-12-20T05:24:01;0.50;99.90
8313;DHT22;4194;43.408;24.626;2023-12-20T05:26:27;0.70;99.90
8313;DHT22;4194;43.408;24.626;2023-12-20T05:28:55;0.50;99.90
8313;DHT22;4194;43.408;24.626;2023-12-20T05:31:20;1.10;99.90
8313;DHT22;4194;43.408;24.626;2023-12-20T05:33:46;0.50;99.90
8313;DHT22;4194;43.408;24.626;2023-12-20T05:36:11;-0.10;99.90
8313;DHT22;4194;43.408;24.626;2023-12-20T05:38:39;1.00;99.90
8313;DHT22;4194;43.408;24.626;2023-12-20T05:41:05;0.10;99.90
8313;DHT22;4194;43.408;24.626;2023-12-20T05:43:30;0.40;99.90
8313;DHT22;4194;43.408;24.626;2023-12-20T05:45:56;1.10;99.90
8313;DHT22;4194;43.408;24.626;2023-12-20T05:48:22;-0.10;99.90
8313;DHT22;4194;43.408;24.626;2023-12-20T05:50:48;0.50;99.90
8313;DHT22;4194;43.408;24.626;2023-12-20T05:53:14;0.00;99.90
8313;DHT22;4194;43.408;24.626;2023-12-20T05:55:40;0.50;99.90
8313;DHT22;4194;43.408;24.626;2023-12-20T05:58:06;0.40;99.90
8313;DHT22;4194;43.408;24.626;2023-12-20T06:00:31;0.60;99.90
8313;DHT22;4194;43.408;24.626;2023-12-20T06:02:58;0.90;99.90
8313;DHT22;4194;43.408;24.626;2023-12-20T06:05:24;0.90;99.90
8313;DHT22;4194;43.408;24.626;2023-12-20T06:07:49;0.60;99.90
8313;DHT22;4194;43.408;24.626;2023-12-20T06:10:16;0.70;99.90
8313;DHT22;4194;43.408;24.626;2023-12-20T06:12:42;0.80;99.90
8313;DHT22;4194;43.408;24.626;2023-12-20T06:15:08;0.80;99.90
8313;DHT22;4194;43.408;24.626;2023-12-20T06:17:33;1.40;99.90
8313;DHT22;4194;43.408;24.626;2023-12-20T06:20:00;0.90;99.90
8313;DHT22;4194;43.408;24.626;2023-12-20T06:22:26;1.40;99.90
8313;DHT22;4194;43.408;24.626;2023-12-20T06:24:52;1.10;99.90
8313;DHT22;4194;43.408;24.626;2023-12-20T06:27:17;1.10;99.90
8313;DHT22;4194;43.408;24.626;2023-12-20T06:29:43;1.20;99.90
8313;DHT22;4194;43.408;24.626;2023-12-20T06:32:10;1.40;99.90
8313;DHT22;4194;43.408;24.626;2023-12-20T06:34:36;1.60;99.90
8313;DHT22;4194;43.408;24.626;2023-12-20T06:37:01;1.30;99.90
8313;DHT22;4194;43.408;24.626;2023-12-20T06:39:27;1.60;99.90
8313;DHT22;4194;43.408;24.626;2023-12-20T06:41:53;1.60;99.90
8313;DHT22;4194;43.408;24.626;2023-12-20T06:44:19;1.50;99.90
8313;DHT22;4194;43.408;24.626;2023-12-20T06:46:44;1.30;99.90
8313;DHT22;4194;43.408;24.626;2023-12-20T06:49:10;1.70;99.90
8313;DHT22;4194;43.408;24.626;2023-12-20T06:51:36;2.10;99.90
8313;DHT22;4194;43.408;24.626;2023-12-20T06:54:01;2.20;99.90
8313;DHT22;4194;43.408;24.626;2023-12-20T06:56:28;1.90;99.90
8313;DHT22;4194;43.408;24.626;2023-12-20T06:58:53;2.00;99.90
8313;DHT22;4194;43.408;24.626;2023-12-20T07:01:19;2.10;99.90
8313;DHT22;4194;43.408;24.626;2023-12-20T07:03:45;2.30;99.90
8313;DHT22;4194;43.408;24.626;2023-12-20T07:06:10;2.20;99.90
8313;DHT22;4194;43.408;24.626;2023-12-20T07:08:36;2.50;99.90
8313;DHT22;4194;43.408;24.626;2023-12-20T07:11:02;2.40;99.90
8313;DHT22;4194;43.408;24.626;2023-12-20T07:13:28;2.70;99.90
8313;DHT22;4194;43.408;24.626;2023-12-20T07:15:53;2.30;99.90
8313;DHT22;4194;43.408;24.626;2023-12-20T07:18:19;3.00;99.90
8313;DHT22;4194;43.408;24.626;2023-12-20T07:20:45;2.70;99.90
8313;DHT22;4194;43.408;24.626;2023-12-20T07:23:10;2.80;99.90
8313;DHT22;4194;43.408;24.626;2023-12-20T07:25:36;3.30;99.90
8313;DHT22;4194;43.408;24.626;2023-12-20T07:28:02;3.30;99.90
8313;DHT22;4194;43.408;24.626;2023-12-20T07:30:28;3.10;99.90
8313;DHT22;4194;43.408;24.626;2023-12-20T07:32:53;3.70;99.90
8313;DHT22;4194;43.408;24.626;2023-12-20T07:35:19;3.30;99.90
8313;DHT22;4194;43.408;24.626;2023-12-20T07:37:46;3.00;99.90
8313;DHT22;4194;43.408;24.626;2023-12-20T07:40:12;3.60;99.90
8313;DHT22;4194;43.408;24.626;2023-12-20T07:42:38;3.70;99.90
8313;DHT22;4194;43.408;24.626;2023-12-20T07:45:03;3.90;99.90
8313;DHT22;4194;43.408;24.626;2023-12-20T07:47:29;4.20;99.90
8313;DHT22;4194;43.408;24.626;2023-12-20T07:49:55;4.40;99.90
8313;DHT22;4194;43.408;24.626;2023-12-20T07:52:21;4.30;99.90
8313;DHT22;4194;43.408;24.626;2023-12-20T07:54:48;4.10;99.90
8313;DHT22;4194;43.408;24.626;2023-12-20T07:57:13;4.80;99.90
8313;DHT22;4194;43.408;24.626;2023-12-20T07:59:39;5.10;99.90
8313;DHT22;4194;43.408;24.626;2023-12-20T08:02:05;5.30;99.90
8313;DHT22;4194;43.408;24.626;2023-12-20T08:04:32;5.60;99.90
8313;DHT22;4194;43.408;24.626;2023-12-20T08:06:58;5.60;99.90
8313;DHT22;4194;43.408;24.626;2023-12-20T08:09:23;5.30;99.90
8313;DHT22;4194;43.408;24.626;2023-12-20T08:11:49;6.30;99.90
8313;DHT22;4194;43.408;24.626;2023-12-20T08:14:15;5.90;99.90
8313;DHT22;4194;43.408;24.626;2023-12-20T08:16:41;6.20;99.90
8313;DHT22;4194;43.408;24.626;2023-12-20T08:19:07;6.00;99.90
8313;DHT22;4194;43.408;24.626;2023-12-20T08:21:33;6.00;99.90
8313;DHT22;4194;43.408;24.626;2023-12-20T08:23:59;6.00;99.90
8313;DHT22;4194;43.408;24.626;2023-12-20T08:26:26;6.20;99.90
8313;DHT22;4194;43.408;24.626;2023-12-20T08:28:52;6.20;99.90
8313;DHT22;4194;43.408;24.626;2023-12-20T08:31:18;6.60;99.90
8313;DHT22;4194;43.408;24.626;2023-12-20T08:33:45;5.90;99.90
8313;DHT22;4194;43.408;24.626;2023-12-20T08:36:11;6.60;99.90
8313;DHT22;4194;43.408;24.626;2023-12-20T08:38:37;6.50;99.90
8313;DHT22;4194;43.408;24.626;2023-12-20T08:41:03;6.80;99.90
8313;DHT22;4194;43.408;24.626;2023-12-20T08:43:39;6.60;99.90
8313;DHT22;4194;43.408;24.626;2023-12-20T08:46:06;6.90;99.90
8313;DHT22;4194;43.408;24.626;2023-12-20T08:48:31;6.60;99.90
8313;DHT22;4194;43.408;24.626;2023-12-20T08:50:57;6.60;99.90
8313;DHT22;4194;43.408;24.626;2023-12-20T08:53:23;6.60;99.90
8313;DHT22;4194;43.408;24.626;2023-12-20T08:55:48;6.70;99.90
8313;DHT22;4194;43.408;24.626;2023-12-20T08:58:14;6.80;99.90
8313;DHT22;4194;43.408;24.626;2023-12-20T09:00:40;6.80;99.90
8313;DHT22;4194;43.408;24.626;2023-12-20T09:03:06;7.20;99.90
8313;DHT22;4194;43.408;24.626;2023-12-20T09:05:31;7.10;99.90
8313;DHT22;4194;43.408;24.626;2023-12-20T09:07:57;6.90;99.90
8313;DHT22;4194;43.408;24.626;2023-12-20T09:10:23;6.60;99.90
8313;DHT22;4194;43.408;24.626;2023-12-20T09:12:50;7.00;99.90
8313;DHT22;4194;43.408;24.626;2023-12-20T09:15:16;7.40;99.90
8313;DHT22;4194;43.408;24.626;2023-12-20T09:17:42;7.50;99.90
8313;DHT22;4194;43.408;24.626;2023-12-20T09:20:09;7.90;99.90
8313;DHT22;4194;43.408;24.626;2023-12-20T09:22:35;7.60;99.90
8313;DHT22;4194;43.408;24.626;2023-12-20T09:25:01;7.90;99.90
8313;DHT22;4194;43.408;24.626;2023-12-20T09:27:29;8.00;99.90
8313;DHT22;4194;43.408;24.626;2023-12-20T09:29:55;8.20;99.90
8313;DHT22;4194;43.408;24.626;2023-12-20T09:32:20;8.70;99.90
8313;DHT22;4194;43.408;24.626;2023-12-20T09:34:47;8.70;99.90
8313;DHT22;4194;43.408;24.626;2023-12-20T09:37:13;9.00;99.50
8313;DHT22;4194;43.408;24.626;2023-12-20T09:39:39;9.20;98.80
8313;DHT22;4194;43.408;24.626;2023-12-20T09:42:06;9.30;98.30
8313;DHT22;4194;43.408;24.626;2023-12-20T09:44:33;9.60;97.50
8313;DHT22;4194;43.408;24.626;2023-12-20T09:47:02;9.70;96.80
8313;DHT22;4194;43.408;24.626;2023-12-20T09:49:29;10.00;95.70
8313;DHT22;4194;43.408;24.626;2023-12-20T09:51:56;10.20;94.80
8313;DHT22;4194;43.408;24.626;2023-12-20T09:54:22;10.60;94.30
8313;DHT22;4194;43.408;24.626;2023-12-20T09:56:48;10.60;93.80
8313;DHT22;4194;43.408;24.626;2023-12-20T09:59:14;11.00;93.30
8313;DHT22;4194;43.408;24.626;2023-12-20T10:01:41;10.90;92.80
8313;DHT22;4194;43.408;24.626;2023-12-20T10:04:08;10.90;92.00
8313;DHT22;4194;43.408;24.626;2023-12-20T10:06:36;11.40;91.90
8313;DHT22;4194;43.408;24.626;2023-12-20T10:09:02;11.10;91.90
8313;DHT22;4194;43.408;24.626;2023-12-20T10:11:28;11.30;91.40
8313;DHT22;4194;43.408;24.626;2023-12-20T10:13:59;11.10;91.00
8313;DHT22;4194;43.408;24.626;2023-12-20T10:16:28;11.30;90.90
8313;DHT22;4194;43.408;24.626;2023-12-20T10:18:55;11.40;90.60
8313;DHT22;4194;43.408;24.626;2023-12-20T10:21:22;11.40;90.90
8313;DHT22;4194;43.408;24.626;2023-12-20T10:23:49;11.50;91.40
8313;DHT22;4194;43.408;24.626;2023-12-20T10:26:24;11.40;91.30
8313;DHT22;4194;43.408;24.626;2023-12-20T10:28:55;11.50;91.30
8313;DHT22;4194;43.408;24.626;2023-12-20T10:31:33;11.60;91.60
8313;DHT22;4194;43.408;24.626;2023-12-20T10:34:01;11.80;91.50
8313;DHT22;4194;43.408;24.626;2023-12-20T10:36:29;12.20;91.00
8313;DHT22;4194;43.408;24.626;2023-12-20T10:38:56;12.30;90.40
8313;DHT22;4194;43.408;24.626;2023-12-20T10:41:29;12.30;89.50
8313;DHT22;4194;43.408;24.626;2023-12-20T10:44:01;12.50;89.50
8313;DHT22;4194;43.408;24.626;2023-12-20T10:46:29;12.50;88.70
8313;DHT22;4194;43.408;24.626;2023-12-20T10:48:56;12.70;88.00
8313;DHT22;4194;43.408;24.626;2023-12-20T10:51:22;12.60;86.40
8313;DHT22;4194;43.408;24.626;2023-12-20T10:53:50;12.70;86.10
8313;DHT22;4194;43.408;24.626;2023-12-20T10:56:17;13.00;86.20
8313;DHT22;4194;43.408;24.626;2023-12-20T10:58:44;12.90;85.30
8313;DHT22;4194;43.408;24.626;2023-12-20T11:01:18;13.10;84.80
8313;DHT22;4194;43.408;24.626;2023-12-20T11:03:52;13.00;84.20
8313;DHT22;4194;43.408;24.626;2023-12-20T11:06:40;13.10;83.90
8313;DHT22;4194;43.408;24.626;2023-12-20T11:09:23;13.40;83.80
8313;DHT22;4194;43.408;24.626;2023-12-20T11:12:13;13.60;83.60
8313;DHT22;4194;43.408;24.626;2023-12-20T11:14:50;13.60;82.60
8313;DHT22;4194;43.408;24.626;2023-12-20T11:17:16;13.60;82.40
8313;DHT22;4194;43.408;24.626;2023-12-20T11:22:31;13.90;82.10
8313;DHT22;4194;43.408;24.626;2023-12-20T11:25:10;13.90;82.40
8313;DHT22;4194;43.408;24.626;2023-12-20T11:27:40;13.70;82.80
8313;DHT22;4194;43.408;24.626;2023-12-20T11:30:06;13.60;82.80
8313;DHT22;4194;43.408;24.626;2023-12-20T11:32:35;13.70;83.40
8313;DHT22;4194;43.408;24.626;2023-12-20T11:35:17;13.70;82.60
8313;DHT22;4194;43.408;24.626;2023-12-20T11:37:43;13.70;81.20
8313;DHT22;4194;43.408;24.626;2023-12-20T11:40:15;13.60;80.90
8313;DHT22;4194;43.408;24.626;2023-12-20T11:42:42;13.40;82.10
8313;DHT22;4194;43.408;24.626;2023-12-20T11:45:19;13.40;81.50
8313;DHT22;4194;43.408;24.626;2023-12-20T11:47:48;13.80;80.70
8313;DHT22;4194;43.408;24.626;2023-12-20T11:50:16;13.70;78.30
8313;DHT22;4194;43.408;24.626;2023-12-20T11:52:41;13.10;78.70
8313;DHT22;4194;43.408;24.626;2023-12-20T11:55:07;13.00;79.70
8313;DHT22;4194;43.408;24.626;2023-12-20T11:57:33;12.80;80.30
8313;DHT22;4194;43.408;24.626;2023-12-20T11:59:59;12.80;80.40
8313;DHT22;4194;43.408;24.626;2023-12-20T12:02:25;12.60;80.90
8313;DHT22;4194;43.408;24.626;2023-12-20T12:04:51;12.70;80.20
8313;DHT22;4194;43.408;24.626;2023-12-20T12:07:17;13.10;80.60
8313;DHT22;4194;43.408;24.626;2023-12-20T12:09:43;12.70;80.30
8313;DHT22;4194;43.408;24.626;2023-12-20T12:12:10;12.70;80.10
8313;DHT22;4194;43.408;24.626;2023-12-20T12:14:37;13.20;80.40
8313;DHT22;4194;43.408;24.626;2023-12-20T12:17:04;13.90;78.60
8313;DHT22;4194;43.408;24.626;2023-12-20T12:19:30;14.90;77.20
8313;DHT22;4194;43.408;24.626;2023-12-20T12:24:45;16.50;71.10
8313;DHT22;4194;43.408;24.626;2023-12-20T12:27:12;19.00;66.10
8313;DHT22;4194;43.408;24.626;2023-12-20T12:29:40;22.00;59.00
8313;DHT22;4194;43.408;24.626;2023-12-20T12:32:07;24.80;52.60
8313;DHT22;4194;43.408;24.626;2023-12-20T12:34:33;26.50;48.30
8313;DHT22;4194;43.408;24.626;2023-12-20T12:37:06;28.00;44.90
8313;DHT22;4194;43.408;24.626;2023-12-20T12:39:32;28.00;43.40
8313;DHT22;4194;43.408;24.626;2023-12-20T12:41:58;25.80;45.30
8313;DHT22;4194;43.408;24.626;2023-12-20T12:44:24;23.10;47.80
8313;DHT22;4194;43.408;24.626;2023-12-20T12:46:50;21.10;50.90
8313;DHT22;4194;43.408;24.626;2023-12-20T12:49:17;19.40;53.40
8313;DHT22;4194;43.408;24.626;2023-12-20T12:51:43;18.00;55.90
8313;DHT22;4194;43.408;24.626;2023-12-20T12:54:09;16.90;58.40
8313;DHT22;4194;43.408;24.626;2023-12-20T12:56:36;15.80;59.60
8313;DHT22;4194;43.408;24.626;2023-12-20T12:59:02;15.50;61.50
8313;DHT22;4194;43.408;24.626;2023-12-20T13:01:28;14.90;63.00
8313;DHT22;4194;43.408;24.626;2023-12-20T13:03:53;14.50;64.90
8313;DHT22;4194;43.408;24.626;2023-12-20T13:06:20;14.20;65.50
8313;DHT22;4194;43.408;24.626;2023-12-20T13:08:45;14.20;65.60
8313;DHT22;4194;43.408;24.626;2023-12-20T13:11:11;13.70;66.60
8313;DHT22;4194;43.408;24.626;2023-12-20T13:13:37;13.70;67.20
8313;DHT22;4194;43.408;24.626;2023-12-20T13:16:03;13.70;68.20
8313;DHT22;4194;43.408;24.626;2023-12-20T13:18:29;13.90;69.20
8313;DHT22;4194;43.408;24.626;2023-12-20T13:20:55;13.20;69.70
8313;DHT22;4194;43.408;24.626;2023-12-20T13:23:20;13.40;70.40
8313;DHT22;4194;43.408;24.626;2023-12-20T13:25:46;13.20;70.50
8313;DHT22;4194;43.408;24.626;2023-12-20T13:28:12;13.00;71.00
8313;DHT22;4194;43.408;24.626;2023-12-20T13:30:38;13.30;71.70
8313;DHT22;4194;43.408;24.626;2023-12-20T13:33:04;12.70;72.10
8313;DHT22;4194;43.408;24.626;2023-12-20T13:35:31;12.70;73.00
8313;DHT22;4194;43.408;24.626;2023-12-20T13:38:00;12.50;73.50
8313;DHT22;4194;43.408;24.626;2023-12-20T13:40:26;11.80;73.60
8313;DHT22;4194;43.408;24.626;2023-12-20T13:42:52;12.10;74.80
8313;DHT22;4194;43.408;24.626;2023-12-20T13:45:18;12.00;74.70
8313;DHT22;4194;43.408;24.626;2023-12-20T13:47:44;11.90;74.90
8313;DHT22;4194;43.408;24.626;2023-12-20T13:50:10;11.50;75.00
8313;DHT22;4194;43.408;24.626;2023-12-20T13:52:36;11.90;75.80
8313;DHT22;4194;43.408;24.626;2023-12-20T13:55:02;12.10;76.30
8313;DHT22;4194;43.408;24.626;2023-12-20T13:57:30;12.00;76.90
8313;DHT22;4194;43.408;24.626;2023-12-20T13:59:56;11.70;77.30
8313;DHT22;4194;43.408;24.626;2023-12-20T14:02:24;11.90;78.50
8313;DHT22;4194;43.408;24.626;2023-12-20T14:04:52;11.60;78.90
8313;DHT22;4194;43.408;24.626;2023-12-20T14:07:18;11.00;79.30
8313;DHT22;4194;43.408;24.626;2023-12-20T14:09:43;11.20;80.30
8313;DHT22;4194;43.408;24.626;2023-12-20T14:12:11;10.60;80.60
8313;DHT22;4194;43.408;24.626;2023-12-20T14:14:37;11.10;81.90
8313;DHT22;4194;43.408;24.626;2023-12-20T14:17:03;10.80;82.80
8313;DHT22;4194;43.408;24.626;2023-12-20T14:19:29;10.80;84.20
8313;DHT22;4194;43.408;24.626;2023-12-20T14:21:55;10.80;85.70
8313;DHT22;4194;43.408;24.626;2023-12-20T14:24:21;9.90;87.70
8313;DHT22;4194;43.408;24.626;2023-12-20T14:26:46;10.20;88.30
8313;DHT22;4194;43.408;24.626;2023-12-20T14:29:12;10.10;89.30
8313;DHT22;4194;43.408;24.626;2023-12-20T14:31:38;10.10;90.60
8313;DHT22;4194;43.408;24.626;2023-12-20T14:34:05;9.80;91.10
8313;DHT22;4194;43.408;24.626;2023-12-20T14:36:32;9.50;92.00
8313;DHT22;4194;43.408;24.626;2023-12-20T14:38:57;9.60;93.00
8313;DHT22;4194;43.408;24.626;2023-12-20T14:41:23;9.40;93.80
8313;DHT22;4194;43.408;24.626;2023-12-20T14:43:50;9.20;94.60
8313;DHT22;4194;43.408;24.626;2023-12-20T14:46:17;9.40;95.70
8313;DHT22;4194;43.408;24.626;2023-12-20T14:48:43;9.30;96.10
8313;DHT22;4194;43.408;24.626;2023-12-20T14:51:09;9.00;97.30
8313;DHT22;4194;43.408;24.626;2023-12-20T14:53:36;8.70;98.80
8313;DHT22;4194;43.408;24.626;2023-12-20T14:56:04;8.90;99.90
8313;DHT22;4194;43.408;24.626;2023-12-20T14:58:29;8.50;99.90
8313;DHT22;4194;43.408;24.626;2023-12-20T15:00:55;8.00;99.90
8313;DHT22;4194;43.408;24.626;2023-12-20T15:03:21;8.20;99.90
8313;DHT22;4194;43.408;24.626;2023-12-20T15:05:47;8.50;99.90
8313;DHT22;4194;43.408;24.626;2023-12-20T15:08:14;8.00;99.90
8313;DHT22;4194;43.408;24.626;2023-12-20T15:10:39;8.10;99.90
8313;DHT22;4194;43.408;24.626;2023-12-20T15:13:05;7.80;99.90
8313;DHT22;4194;43.408;24.626;2023-12-20T15:15:31;8.10;99.90
8313;DHT22;4194;43.408;24.626;2023-12-20T15:17:59;7.60;99.90
8313;DHT22;4194;43.408;24.626;2023-12-20T15:20:25;7.30;99.90
8313;DHT22;4194;43.408;24.626;2023-12-20T15:22:51;5.70;99.90
8313;DHT22;4194;43.408;24.626;2023-12-20T15:25:16;7.30;99.90
8313;DHT22;4194;43.408;24.626;2023-12-20T15:27:48;7.60;99.90
8313;DHT22;4194;43.408;24.626;2023-12-20T15:30:19;7.40;99.90
8313;DHT22;4194;43.408;24.626;2023-12-20T15:32:45;7.40;99.90
8313;DHT22;4194;43.408;24.626;2023-12-20T15:35:11;7.20;99.90
8313;DHT22;4194;43.408;24.626;2023-12-20T15:37:38;7.10;99.90
8313;DHT22;4194;43.408;24.626;2023-12-20T15:40:06;7.10;99.90
8313;DHT22;4194;43.408;24.626;2023-12-20T15:42:33;6.80;99.90
8313;DHT22;4194;43.408;24.626;2023-12-20T15:45:02;7.00;99.90
8313;DHT22;4194;43.408;24.626;2023-12-20T15:47:28;6.40;99.90
8313;DHT22;4194;43.408;24.626;2023-12-20T15:49:53;6.90;99.90
8313;DHT22;4194;43.408;24.626;2023-12-20T15:52:19;6.90;99.90
8313;DHT22;4194;43.408;24.626;2023-12-20T15:54:45;6.90;99.90
8313;DHT22;4194;43.408;24.626;2023-12-20T15:57:11;6.90;99.90